sensor_id;sensor_type;location;lat;lon;timestamp;pressure;altitude;pressure_sealevel;temperature;humidity
6224;BME280;3145;42.726;23.342;2023-10-13T00:02:03;72887.25;;;-142.70;64.57
6224;BME280;3145;42.726;23.342;2023-10-13T00:04:31;72883.25;;;-142.70;64.36
6224;BME280;3145;42.726;23.342;2023-10-13T00:07:01;72883.25;;;-142.70;64.42
6224;BME280;3145;42.726;23.342;2023-10-13T00:09:29;72887.25;;;-142.70;64.61
6224;BME280;3145;42.726;23.342;2023-10-13T00:11:59;72897.34;;;-142.70;64.61
6224;BME280;3145;42.726;23.342;2023-10-13T00:14:26;72899.34;;;-142.70;65.01
6224;BME280;3145;42.726;23.342;2023-10-13T00:17:00;72899.34;;;-142.70;64.96
6224;BME280;3145;42.726;23.342;2023-10-13T00:19:29;72903.38;;;-142.70;64.91
6224;BME280;3145;42.726;23.342;2023-10-13T00:22:07;72899.34;;;-142.70;65.34
6224;BME280;3145;42.726;23.342;2023-10-13T00:24:38;72903.38;;;-142.70;65.16
6224;BME280;3145;42.726;23.342;2023-10-13T00:27:11;72913.47;;;-142.70;65.41
6224;BME280;3145;42.726;23.342;2023-10-13T00:29:54;72915.47;;;-142.70;65.62
6224;BME280;3145;42.726;23.342;2023-10-13T00:32:42;72913.47;;;-142.70;65.65
6224;BME280;3145;42.726;23.342;2023-10-13T00:35:11;72919.50;;;-142.70;65.59
6224;BME280;3145;42.726;23.342;2023-10-13T00:37:50;72929.56;;;-142.70;65.89
6224;BME280;3145;42.726;23.342;2023-10-13T00:40:19;72923.53;;;-142.70;65.82
6224;BME280;3145;42.726;23.342;2023-10-13T00:43:06;72935.63;;;-142.70;65.63
6224;BME280;3145;42.726;23.342;2023-10-13T00:45:48;72945.69;;;-142.70;65.72
6224;BME280;3145;42.726;23.342;2023-10-13T00:48:22;72955.78;;;-142.70;66.01
6224;BME280;3145;42.726;23.342;2023-10-13T00:50:55;72959.78;;;-142.70;66.26
6224;BME280;3145;42.726;23.342;2023-10-13T00:53:23;72959.78;;;-142.70;66.78
6224;BME280;3145;42.726;23.342;2023-10-13T00:55:50;72959.78;;;-142.70;66.78
6224;BME280;3145;42.726;23.342;2023-10-13T00:58:21;72967.84;;;-142.70;67.10
6224;BME280;3145;42.726;23.342;2023-10-13T01:00:48;72971.88;;;-142.70;66.93
6224;BME280;3145;42.726;23.342;2023-10-13T01:03:23;72965.84;;;-142.70;66.88
6224;BME280;3145;42.726;23.342;2023-10-13T01:05:53;72969.88;;;-142.70;66.98
6224;BME280;3145;42.726;23.342;2023-10-13T01:08:31;72971.88;;;-142.70;66.94
6224;BME280;3145;42.726;23.342;2023-10-13T01:11:00;72971.88;;;-142.70;67.05
6224;BME280;3145;42.726;23.342;2023-10-13T01:13:26;72973.91;;;-142.70;67.25
6224;BME280;3145;42.726;23.342;2023-10-13T01:15:52;72977.94;;;-142.70;67.11
6224;BME280;3145;42.726;23.342;2023-10-13T01:18:19;72975.91;;;-142.70;67.12
6224;BME280;3145;42.726;23.342;2023-10-13T01:20:47;72971.88;;;-142.70;66.82
6224;BME280;3145;42.726;23.342;2023-10-13T01:23:19;72979.94;;;-142.70;66.72
6224;BME280;3145;42.726;23.342;2023-10-13T01:25:45;72975.91;;;-142.70;66.94
6224;BME280;3145;42.726;23.342;2023-10-13T01:28:12;72979.94;;;-142.70;67.18
6224;BME280;3145;42.726;23.342;2023-10-13T01:30:42;72983.97;;;-142.70;67.27
6224;BME280;3145;42.726;23.342;2023-10-13T01:33:09;72983.97;;;-142.70;67.28
6224;BME280;3145;42.726;23.342;2023-10-13T01:35:36;73004.13;;;-142.70;67.00
6224;BME280;3145;42.726;23.342;2023-10-13T01:38:07;73004.13;;;-142.70;67.20
6224;BME280;3145;42.726;23.342;2023-10-13T01:40:35;73008.16;;;-142.70;66.99
6224;BME280;3145;42.726;23.342;2023-10-13T01:43:02;73012.19;;;-142.70;67.76
6224;BME280;3145;42.726;23.342;2023-10-13T01:45:29;73038.38;;;-142.70;68.33
6224;BME280;3145;42.726;23.342;2023-10-13T01:47:56;73032.31;;;-142.70;68.56
6224;BME280;3145;42.726;23.342;2023-10-13T01:50:22;73036.34;;;-142.70;68.61
6224;BME280;3145;42.726;23.342;2023-10-13T01:52:54;73028.31;;;-142.70;68.52
6224;BME280;3145;42.726;23.342;2023-10-13T01:55:31;73036.34;;;-142.70;68.59
6224;BME280;3145;42.726;23.342;2023-10-13T01:58:06;73054.50;;;-142.70;69.00
6224;BME280;3145;42.726;23.342;2023-10-13T02:00:39;73052.47;;;-142.70;69.32
6224;BME280;3145;42.726;23.342;2023-10-13T02:03:08;73052.47;;;-142.70;69.43
6224;BME280;3145;42.726;23.342;2023-10-13T02:05:40;73054.50;;;-142.70;69.34
6224;BME280;3145;42.726;23.342;2023-10-13T02:08:10;73052.47;;;-142.70;69.37
6224;BME280;3145;42.726;23.342;2023-10-13T02:10:42;73044.41;;;-142.70;69.24
6224;BME280;3145;42.726;23.342;2023-10-13T02:13:13;73048.44;;;-142.70;68.99
6224;BME280;3145;42.726;23.342;2023-10-13T02:15:41;73036.34;;;-142.70;69.03
6224;BME280;3145;42.726;23.342;2023-10-13T02:18:10;73040.38;;;-142.70;68.92
6224;BME280;3145;42.726;23.342;2023-10-13T02:20:36;73048.44;;;-142.70;68.76
6224;BME280;3145;42.726;23.342;2023-10-13T02:23:09;73048.44;;;-142.70;68.87
6224;BME280;3145;42.726;23.342;2023-10-13T02:25:36;73056.50;;;-142.70;68.64
6224;BME280;3145;42.726;23.342;2023-10-13T02:28:08;73056.50;;;-142.70;68.56
6224;BME280;3145;42.726;23.342;2023-10-13T02:30:39;73052.47;;;-142.70;68.68
6224;BME280;3145;42.726;23.342;2023-10-13T02:33:11;73056.50;;;-142.70;68.78
6224;BME280;3145;42.726;23.342;2023-10-13T02:35:37;73072.63;;;-142.70;68.15
6224;BME280;3145;42.726;23.342;2023-10-13T02:38:19;73076.66;;;-142.70;68.44
6224;BME280;3145;42.726;23.342;2023-10-13T02:40:53;73082.69;;;-142.70;68.49
6224;BME280;3145;42.726;23.342;2023-10-13T02:43:20;73092.78;;;-142.70;68.53
6224;BME280;3145;42.726;23.342;2023-10-13T02:45:58;73088.75;;;-142.70;68.86
6224;BME280;3145;42.726;23.342;2023-10-13T02:48:25;73088.75;;;-142.70;68.71
6224;BME280;3145;42.726;23.342;2023-10-13T02:50:57;73092.78;;;-142.70;68.74
6224;BME280;3145;42.726;23.342;2023-10-13T02:53:27;73104.88;;;-142.70;68.91
6224;BME280;3145;42.726;23.342;2023-10-13T02:55:55;73104.88;;;-142.70;69.09
6224;BME280;3145;42.726;23.342;2023-10-13T02:58:22;73112.91;;;-142.70;69.09
6224;BME280;3145;42.726;23.342;2023-10-13T03:01:06;73116.94;;;-142.70;69.16
6224;BME280;3145;42.726;23.342;2023-10-13T03:03:43;73120.97;;;-142.70;69.32
6224;BME280;3145;42.726;23.342;2023-10-13T03:06:13;73127.03;;;-142.70;69.67
6224;BME280;3145;42.726;23.342;2023-10-13T03:08:39;73129.03;;;-142.70;69.50
6224;BME280;3145;42.726;23.342;2023-10-13T03:11:08;73125.00;;;-142.70;69.73
6224;BME280;3145;42.726;23.342;2023-10-13T03:13:35;73133.06;;;-142.70;69.72
6224;BME280;3145;42.726;23.342;2023-10-13T03:16:12;73141.13;;;-142.70;69.51
6224;BME280;3145;42.726;23.342;2023-10-13T03:18:41;73141.13;;;-142.70;69.39
6224;BME280;3145;42.726;23.342;2023-10-13T03:21:16;73151.22;;;-142.70;69.70
6224;BME280;3145;42.726;23.342;2023-10-13T03:23:54;73165.31;;;-142.70;70.07
6224;BME280;3145;42.726;23.342;2023-10-13T03:26:20;73165.31;;;-142.70;70.55
6224;BME280;3145;42.726;23.342;2023-10-13T03:28:46;73163.28;;;-142.70;70.66
6224;BME280;3145;42.726;23.342;2023-10-13T03:31:19;73161.28;;;-142.70;70.60
6224;BME280;3145;42.726;23.342;2023-10-13T03:33:44;73161.28;;;-142.70;70.41
6224;BME280;3145;42.726;23.342;2023-10-13T03:36:12;73163.28;;;-142.70;70.14
6224;BME280;3145;42.726;23.342;2023-10-13T03:38:59;73165.31;;;-142.70;70.17
6224;BME280;3145;42.726;23.342;2023-10-13T03:41:30;73177.41;;;-142.70;70.27
6224;BME280;3145;42.726;23.342;2023-10-13T03:43:56;73175.38;;;-142.70;70.50
6224;BME280;3145;42.726;23.342;2023-10-13T03:46:35;73177.41;;;-142.70;70.68
6224;BME280;3145;42.726;23.342;2023-10-13T03:49:06;73177.41;;;-142.70;70.94
6224;BME280;3145;42.726;23.342;2023-10-13T03:51:38;73173.38;;;-142.70;71.06
6224;BME280;3145;42.726;23.342;2023-10-13T03:54:05;73169.34;;;-142.70;71.32
6224;BME280;3145;42.726;23.342;2023-10-13T03:56:35;73163.28;;;-142.70;71.46
6224;BME280;3145;42.726;23.342;2023-10-13T03:59:10;73157.25;;;-142.70;71.41
6224;BME280;3145;42.726;23.342;2023-10-13T04:01:45;73169.34;;;-142.70;70.83
6224;BME280;3145;42.726;23.342;2023-10-13T04:04:13;73169.34;;;-142.70;70.83
6224;BME280;3145;42.726;23.342;2023-10-13T04:06:41;73165.31;;;-142.70;70.88
6224;BME280;3145;42.726;23.342;2023-10-13T04:09:39;73161.28;;;-142.70;70.58
6224;BME280;3145;42.726;23.342;2023-10-13T04:12:32;73165.31;;;-142.70;70.56
6224;BME280;3145;42.726;23.342;2023-10-13T04:15:16;73167.31;;;-142.70;70.00
6224;BME280;3145;42.726;23.342;2023-10-13T04:17:50;73173.38;;;-142.70;69.94
6224;BME280;3145;42.726;23.342;2023-10-13T04:20:17;73173.38;;;-142.70;70.13
6224;BME280;3145;42.726;23.342;2023-10-13T04:22:58;73181.44;;;-142.70;69.86
6224;BME280;3145;42.726;23.342;2023-10-13T04:25:42;73205.59;;;-142.70;70.20
6224;BME280;3145;42.726;23.342;2023-10-13T04:28:28;73201.56;;;-142.70;70.68
6224;BME280;3145;42.726;23.342;2023-10-13T04:31:03;73213.66;;;-142.70;70.86
6224;BME280;3145;42.726;23.342;2023-10-13T04:33:41;73217.69;;;-142.70;70.90
6224;BME280;3145;42.726;23.342;2023-10-13T04:36:17;73221.72;;;-142.70;71.23
6224;BME280;3145;42.726;23.342;2023-10-13T04:38:49;73229.78;;;-142.70;71.20
6224;BME280;3145;42.726;23.342;2023-10-13T04:41:24;73229.78;;;-142.70;71.48
6224;BME280;3145;42.726;23.342;2023-10-13T04:43:50;73225.75;;;-142.70;71.50
6224;BME280;3145;42.726;23.342;2023-10-13T04:46:30;73225.75;;;-142.70;71.23
6224;BME280;3145;42.726;23.342;2023-10-13T04:49:21;73213.66;;;-142.70;71.12
6224;BME280;3145;42.726;23.342;2023-10-13T04:51:54;73205.59;;;-142.70;70.86
6224;BME280;3145;42.726;23.342;2023-10-13T04:54:25;73181.44;;;-142.70;70.80
6224;BME280;3145;42.726;23.342;2023-10-13T04:56:59;73153.22;;;-142.70;70.53
6224;BME280;3145;42.726;23.342;2023-10-13T04:59:40;73120.97;;;-142.70;69.91
6224;BME280;3145;42.726;23.342;2023-10-13T05:02:20;73076.66;;;-142.70;69.28
6224;BME280;3145;42.726;23.342;2023-10-13T05:05:08;73040.38;;;-142.70;68.66
6224;BME280;3145;42.726;23.342;2023-10-13T05:08:08;72983.97;;;-142.70;67.28
6224;BME280;3145;42.726;23.342;2023-10-13T05:10:52;72939.66;;;-142.70;66.08
6224;BME280;3145;42.726;23.342;2023-10-13T05:13:39;72899.34;;;-142.70;64.63
6224;BME280;3145;42.726;23.342;2023-10-13T05:16:23;72863.09;;;-142.70;63.91
6224;BME280;3145;42.726;23.342;2023-10-13T05:19:08;72814.75;;;-142.70;61.73
6224;BME280;3145;42.726;23.342;2023-10-13T05:21:53;72766.38;;;-142.70;60.03
6224;BME280;3145;42.726;23.342;2023-10-13T05:24:37;72728.09;;;-142.70;58.12
6224;BME280;3145;42.726;23.342;2023-10-13T05:27:21;72683.78;;;-142.70;56.08
6224;BME280;3145;42.726;23.342;2023-10-13T05:30:05;72629.38;;;-142.70;53.63
6224;BME280;3145;42.726;23.342;2023-10-13T05:32:50;72593.13;;;-142.70;52.94
6224;BME280;3145;42.726;23.342;2023-10-13T05:35:34;72552.84;;;-142.70;52.00
6224;BME280;3145;42.726;23.342;2023-10-13T05:38:19;72516.56;;;-142.70;50.81
6224;BME280;3145;42.726;23.342;2023-10-13T05:41:04;72472.25;;;-142.70;49.46
6224;BME280;3145;42.726;23.342;2023-10-13T05:43:49;72452.13;;;-142.70;47.20
6224;BME280;3145;42.726;23.342;2023-10-13T05:46:33;72484.34;;;-142.70;45.99
6224;BME280;3145;42.726;23.342;2023-10-13T05:49:26;72440.03;;;-142.70;46.09
6224;BME280;3145;42.726;23.342;2023-10-13T05:52:06;72407.81;;;-142.70;45.67
6224;BME280;3145;42.726;23.342;2023-10-13T05:55:07;72375.56;;;-142.70;44.52
6224;BME280;3145;42.726;23.342;2023-10-13T05:57:51;72383.63;;;-142.70;44.25
6224;BME280;3145;42.726;23.342;2023-10-13T06:00:39;72401.75;;;-142.70;43.84
6224;BME280;3145;42.726;23.342;2023-10-13T06:03:24;72409.81;;;-142.70;44.21
6224;BME280;3145;42.726;23.342;2023-10-13T06:06:08;72391.69;;;-142.70;44.46
6224;BME280;3145;42.726;23.342;2023-10-13T06:08:52;72427.94;;;-142.70;44.35
6224;BME280;3145;42.726;23.342;2023-10-13T06:11:37;72387.66;;;-142.70;44.33
6224;BME280;3145;42.726;23.342;2023-10-13T06:14:22;72353.41;;;-142.70;43.77
6224;BME280;3145;42.726;23.342;2023-10-13T06:17:05;72331.25;;;-142.70;43.69
6224;BME280;3145;42.726;23.342;2023-10-13T06:20:05;72274.84;;;-142.70;42.85
6224;BME280;3145;42.726;23.342;2023-10-13T06:22:49;72238.59;;;-142.70;42.28
6224;BME280;3145;42.726;23.342;2023-10-13T06:25:33;72222.47;;;-142.70;41.36
6224;BME280;3145;42.726;23.342;2023-10-13T06:28:19;72248.66;;;-142.70;41.55
6224;BME280;3145;42.726;23.342;2023-10-13T06:31:04;72236.56;;;-142.70;41.55
6224;BME280;3145;42.726;23.342;2023-10-13T06:33:32;72214.41;;;-142.70;41.56
6224;BME280;3145;42.726;23.342;2023-10-13T06:35:59;72246.66;;;-142.70;41.90
6224;BME280;3145;42.726;23.342;2023-10-13T06:38:26;72254.72;;;-142.70;42.69
6224;BME280;3145;42.726;23.342;2023-10-13T06:41:01;72252.69;;;-142.70;42.03
6224;BME280;3145;42.726;23.342;2023-10-13T06:43:32;72230.53;;;-142.70;42.12
6224;BME280;3145;42.726;23.342;2023-10-13T06:46:04;72214.41;;;-142.70;41.93
6224;BME280;3145;42.726;23.342;2023-10-13T06:48:33;72220.47;;;-142.70;41.60
6224;BME280;3145;42.726;23.342;2023-10-13T06:51:00;72242.63;;;-142.70;42.03
6224;BME280;3145;42.726;23.342;2023-10-13T06:53:30;72178.16;;;-142.70;42.42
6224;BME280;3145;42.726;23.342;2023-10-13T06:56:02;72099.59;;;-142.70;41.28
6224;BME280;3145;42.726;23.342;2023-10-13T06:58:29;72037.16;;;-142.70;39.88
6224;BME280;3145;42.726;23.342;2023-10-13T07:00:58;72017.03;;;-142.70;39.58
6224;BME280;3145;42.726;23.342;2023-10-13T07:03:24;72019.03;;;-142.70;39.41
6224;BME280;3145;42.726;23.342;2023-10-13T07:05:51;72049.25;;;-142.70;40.08
6224;BME280;3145;42.726;23.342;2023-10-13T07:08:19;72091.53;;;-142.70;40.56
6224;BME280;3145;42.726;23.342;2023-10-13T07:10:49;72121.75;;;-142.70;40.77
6224;BME280;3145;42.726;23.342;2023-10-13T07:13:27;72160.03;;;-142.70;41.04
6224;BME280;3145;42.726;23.342;2023-10-13T07:15:54;72137.88;;;-142.70;40.87
6224;BME280;3145;42.726;23.342;2023-10-13T07:18:32;72145.94;;;-142.70;41.26
6224;BME280;3145;42.726;23.342;2023-10-13T07:21:02;72137.88;;;-142.70;40.82
6224;BME280;3145;42.726;23.342;2023-10-13T07:23:35;72129.81;;;-142.70;40.95
6224;BME280;3145;42.726;23.342;2023-10-13T07:26:02;72125.78;;;-142.70;41.04
6224;BME280;3145;42.726;23.342;2023-10-13T07:28:29;72061.34;;;-142.70;40.55
6224;BME280;3145;42.726;23.342;2023-10-13T07:31:01;71962.63;;;-142.70;39.98
6224;BME280;3145;42.726;23.342;2023-10-13T07:33:39;71908.25;;;-142.70;39.03
6224;BME280;3145;42.726;23.342;2023-10-13T07:36:08;71896.16;;;-142.70;38.22
6224;BME280;3145;42.726;23.342;2023-10-13T07:38:43;71831.72;;;-142.70;38.44
6224;BME280;3145;42.726;23.342;2023-10-13T07:41:14;71767.28;;;-142.70;37.09
6224;BME280;3145;42.726;23.342;2023-10-13T07:43:41;71747.13;;;-142.70;36.71
6224;BME280;3145;42.726;23.342;2023-10-13T07:46:10;71706.84;;;-142.70;36.40
6224;BME280;3145;42.726;23.342;2023-10-13T07:48:38;71684.69;;;-142.70;35.97
6224;BME280;3145;42.726;23.342;2023-10-13T07:51:08;71688.72;;;-142.70;35.96
6224;BME280;3145;42.726;23.342;2023-10-13T07:53:37;71674.63;;;-142.70;35.71
6224;BME280;3145;42.726;23.342;2023-10-13T07:56:06;71720.94;;;-142.70;36.03
6224;BME280;3145;42.726;23.342;2023-10-13T07:58:34;71706.84;;;-142.70;36.87
6224;BME280;3145;42.726;23.342;2023-10-13T08:01:04;71700.81;;;-142.70;35.71
6224;BME280;3145;42.726;23.342;2023-10-13T08:03:34;71710.88;;;-142.70;35.86
6224;BME280;3145;42.726;23.342;2023-10-13T08:06:10;71729.00;;;-142.70;36.24
6224;BME280;3145;42.726;23.342;2023-10-13T08:08:47;71658.50;;;-142.70;36.42
6224;BME280;3145;42.726;23.342;2023-10-13T08:11:19;71594.06;;;-142.70;35.88
6224;BME280;3145;42.726;23.342;2023-10-13T08:13:57;71559.81;;;-142.70;35.18
6224;BME280;3145;42.726;23.342;2023-10-13T08:16:26;71535.66;;;-142.70;34.91
6224;BME280;3145;42.726;23.342;2023-10-13T08:19:12;71626.28;;;-142.70;35.03
6224;BME280;3145;42.726;23.342;2023-10-13T08:21:42;71618.22;;;-142.70;34.96
6224;BME280;3145;42.726;23.342;2023-10-13T08:24:15;71712.88;;;-142.70;35.76
6224;BME280;3145;42.726;23.342;2023-10-13T08:26:50;71720.94;;;-142.70;36.15
6224;BME280;3145;42.726;23.342;2023-10-13T08:29:34;71739.06;;;-142.70;36.66
6224;BME280;3145;42.726;23.342;2023-10-13T08:32:40;71662.53;;;-142.70;35.66
6224;BME280;3145;42.726;23.342;2023-10-13T08:35:22;71624.28;;;-142.70;35.88
6224;BME280;3145;42.726;23.342;2023-10-13T08:37:50;71586.00;;;-142.70;35.72
6224;BME280;3145;42.726;23.342;2023-10-13T08:40:29;71537.66;;;-142.70;35.01
6224;BME280;3145;42.726;23.342;2023-10-13T08:43:27;71493.38;;;-142.70;34.56
6224;BME280;3145;42.726;23.342;2023-10-13T08:46:08;71501.44;;;-142.70;34.05
6224;BME280;3145;42.726;23.342;2023-10-13T08:48:51;71517.53;;;-142.70;34.22
6224;BME280;3145;42.726;23.342;2023-10-13T08:51:31;71537.66;;;-142.70;34.42
6224;BME280;3145;42.726;23.342;2023-10-13T08:54:12;71541.69;;;-142.70;34.01
6224;BME280;3145;42.726;23.342;2023-10-13T08:56:47;71537.66;;;-142.70;34.84
6224;BME280;3145;42.726;23.342;2023-10-13T08:59:20;71507.47;;;-142.70;34.72
6224;BME280;3145;42.726;23.342;2023-10-13T09:01:58;71481.28;;;-142.70;34.54
6224;BME280;3145;42.726;23.342;2023-10-13T09:04:25;71447.03;;;-142.70;34.10
6224;BME280;3145;42.726;23.342;2023-10-13T09:07:00;71404.75;;;-142.70;33.26
6224;BME280;3145;42.726;23.342;2023-10-13T09:09:44;71376.56;;;-142.70;33.12
6224;BME280;3145;42.726;23.342;2023-10-13T09:12:36;71354.41;;;-142.70;33.43
6224;BME280;3145;42.726;23.342;2023-10-13T09:15:05;71418.84;;;-142.70;33.29
6224;BME280;3145;42.726;23.342;2023-10-13T09:17:44;71354.41;;;-142.70;33.64
6224;BME280;3145;42.726;23.342;2023-10-13T09:20:14;71316.16;;;-142.70;33.09
6224;BME280;3145;42.726;23.342;2023-10-13T09:22:58;71271.84;;;-142.70;32.31
6224;BME280;3145;42.726;23.342;2023-10-13T09:25:35;71291.97;;;-142.70;31.86
6224;BME280;3145;42.726;23.342;2023-10-13T09:28:11;71310.09;;;-142.70;32.80
6224;BME280;3145;42.726;23.342;2023-10-13T09:30:44;71322.19;;;-142.70;32.90
6224;BME280;3145;42.726;23.342;2023-10-13T09:33:11;71289.97;;;-142.70;33.11
6224;BME280;3145;42.726;23.342;2023-10-13T09:35:43;71279.91;;;-142.70;32.81
6224;BME280;3145;42.726;23.342;2023-10-13T09:38:14;71275.88;;;-142.70;32.12
6224;BME280;3145;42.726;23.342;2023-10-13T09:40:42;71237.63;;;-142.70;32.24
6224;BME280;3145;42.726;23.342;2023-10-13T09:43:16;71207.41;;;-142.70;32.42
6224;BME280;3145;42.726;23.342;2023-10-13T09:45:46;71211.44;;;-142.70;31.89
6224;BME280;3145;42.726;23.342;2023-10-13T09:48:34;71281.91;;;-142.70;32.03
6224;BME280;3145;42.726;23.342;2023-10-13T09:51:02;71261.78;;;-142.70;32.49
6224;BME280;3145;42.726;23.342;2023-10-13T09:53:32;71277.88;;;-142.70;32.55
6224;BME280;3145;42.726;23.342;2023-10-13T09:56:05;71267.81;;;-142.70;33.04
6224;BME280;3145;42.726;23.342;2023-10-13T09:58:48;71267.81;;;-142.70;32.91
6224;BME280;3145;42.726;23.342;2023-10-13T10:01:19;71207.41;;;-142.70;32.35
6224;BME280;3145;42.726;23.342;2023-10-13T10:04:06;71138.94;;;-142.70;32.10
6224;BME280;3145;42.726;23.342;2023-10-13T10:06:33;71102.69;;;-142.70;31.62
6224;BME280;3145;42.726;23.342;2023-10-13T10:09:10;71140.94;;;-142.70;31.11
6224;BME280;3145;42.726;23.342;2023-10-13T10:12:05;71149.00;;;-142.70;31.47
6224;BME280;3145;42.726;23.342;2023-10-13T10:17:40;71104.72;;;-142.70;30.57
6224;BME280;3145;42.726;23.342;2023-10-13T10:20:08;71082.56;;;-142.70;31.16
6224;BME280;3145;42.726;23.342;2023-10-13T10:22:41;71062.41;;;-142.70;31.06
6224;BME280;3145;42.726;23.342;2023-10-13T10:25:14;71040.28;;;-142.70;30.72
6224;BME280;3145;42.726;23.342;2023-10-13T10:27:56;70993.97;;;-142.70;30.89
6224;BME280;3145;42.726;23.342;2023-10-13T10:30:24;70981.88;;;-142.70;29.53
6224;BME280;3145;42.726;23.342;2023-10-13T10:32:54;70977.84;;;-142.70;29.94
6224;BME280;3145;42.726;23.342;2023-10-13T10:35:24;70985.91;;;-142.70;29.77
6224;BME280;3145;42.726;23.342;2023-10-13T10:37:56;70957.72;;;-142.70;29.76
6224;BME280;3145;42.726;23.342;2023-10-13T10:40:48;70961.75;;;-142.70;29.87
6224;BME280;3145;42.726;23.342;2023-10-13T10:43:18;70969.78;;;-142.70;29.47
6224;BME280;3145;42.726;23.342;2023-10-13T10:45:46;70941.59;;;-142.70;29.43
6224;BME280;3145;42.726;23.342;2023-10-13T10:48:15;70929.53;;;-142.70;28.74
6224;BME280;3145;42.726;23.342;2023-10-13T10:50:51;70909.38;;;-142.70;29.44
6224;BME280;3145;42.726;23.342;2023-10-13T10:53:20;70917.44;;;-142.70;27.84
6224;BME280;3145;42.726;23.342;2023-10-13T10:55:47;70911.41;;;-142.70;28.12
6224;BME280;3145;42.726;23.342;2023-10-13T10:58:14;70967.78;;;-142.70;28.04
6224;BME280;3145;42.726;23.342;2023-10-13T11:01:05;70915.44;;;-142.70;28.07
6224;BME280;3145;42.726;23.342;2023-10-13T11:03:35;70913.41;;;-142.70;28.63
6224;BME280;3145;42.726;23.342;2023-10-13T11:06:11;70903.34;;;-142.70;27.91
6224;BME280;3145;42.726;23.342;2023-10-13T11:08:42;70909.38;;;-142.70;28.07
6224;BME280;3145;42.726;23.342;2023-10-13T11:11:16;70887.25;;;-142.70;27.15
6224;BME280;3145;42.726;23.342;2023-10-13T11:13:44;70881.19;;;-142.70;27.73
6224;BME280;3145;42.726;23.342;2023-10-13T11:16:21;70853.00;;;-142.70;27.96
6224;BME280;3145;42.726;23.342;2023-10-13T11:19:00;70883.22;;;-142.70;27.78
6224;BME280;3145;42.726;23.342;2023-10-13T11:21:29;70863.06;;;-142.70;27.93
6224;BME280;3145;42.726;23.342;2023-10-13T11:23:56;70830.84;;;-142.70;27.15
6224;BME280;3145;42.726;23.342;2023-10-13T11:26:33;70806.69;;;-142.70;27.88
6224;BME280;3145;42.726;23.342;2023-10-13T11:29:00;70776.50;;;-142.70;26.52
6224;BME280;3145;42.726;23.342;2023-10-13T11:31:31;70808.72;;;-142.70;26.09
6224;BME280;3145;42.726;23.342;2023-10-13T11:33:58;70806.69;;;-142.70;26.58
6224;BME280;3145;42.726;23.342;2023-10-13T11:36:27;70800.66;;;-142.70;26.21
6224;BME280;3145;42.726;23.342;2023-10-13T11:38:58;70796.63;;;-142.70;26.62
6224;BME280;3145;42.726;23.342;2023-10-13T11:41:25;70788.56;;;-142.70;26.80
6224;BME280;3145;42.726;23.342;2023-10-13T11:43:58;70780.53;;;-142.70;26.87
6224;BME280;3145;42.726;23.342;2023-10-13T11:46:50;70764.41;;;-142.70;26.15
6224;BME280;3145;42.726;23.342;2023-10-13T11:49:21;70776.50;;;-142.70;26.10
6224;BME280;3145;42.726;23.342;2023-10-13T11:52:00;70792.59;;;-142.70;26.70
6224;BME280;3145;42.726;23.342;2023-10-13T11:54:45;70792.59;;;-142.70;26.51
6224;BME280;3145;42.726;23.342;2023-10-13T11:57:12;70760.38;;;-142.70;25.89
6224;BME280;3145;42.726;23.342;2023-10-13T11:59:42;70746.28;;;-142.70;25.40
6224;BME280;3145;42.726;23.342;2023-10-13T12:02:20;70804.69;;;-142.70;26.45
6224;BME280;3145;42.726;23.342;2023-10-13T12:05:05;70806.69;;;-142.70;26.30
6224;BME280;3145;42.726;23.342;2023-10-13T12:07:38;70762.41;;;-142.70;26.11
6224;BME280;3145;42.726;23.342;2023-10-13T12:10:13;70742.25;;;-142.70;26.35
6224;BME280;3145;42.726;23.342;2023-10-13T12:12:59;70726.16;;;-142.70;25.69
6224;BME280;3145;42.726;23.342;2023-10-13T12:15:32;70730.19;;;-142.70;25.46
6224;BME280;3145;42.726;23.342;2023-10-13T12:18:15;70720.13;;;-142.70;25.93
6224;BME280;3145;42.726;23.342;2023-10-13T12:20:42;70720.13;;;-142.70;26.20
6224;BME280;3145;42.726;23.342;2023-10-13T12:23:11;70748.31;;;-142.70;25.86
6224;BME280;3145;42.726;23.342;2023-10-13T12:25:43;70784.56;;;-142.70;25.50
6224;BME280;3145;42.726;23.342;2023-10-13T12:28:23;70756.34;;;-142.70;26.15
6224;BME280;3145;42.726;23.342;2023-10-13T12:30:53;70772.47;;;-142.70;26.02
6224;BME280;3145;42.726;23.342;2023-10-13T12:33:21;70792.59;;;-142.70;25.62
6224;BME280;3145;42.726;23.342;2023-10-13T12:35:56;70780.53;;;-142.70;25.50
6224;BME280;3145;42.726;23.342;2023-10-13T12:38:52;70768.44;;;-142.70;25.68
6224;BME280;3145;42.726;23.342;2023-10-13T12:41:36;70780.53;;;-142.70;25.69
6224;BME280;3145;42.726;23.342;2023-10-13T12:44:21;70796.63;;;-142.70;26.08
6224;BME280;3145;42.726;23.342;2023-10-13T12:47:05;70792.59;;;-142.70;25.61
6224;BME280;3145;42.726;23.342;2023-10-13T12:49:50;70792.59;;;-142.70;26.16
6224;BME280;3145;42.726;23.342;2023-10-13T12:52:32;70804.69;;;-142.70;25.34
6224;BME280;3145;42.726;23.342;2023-10-13T12:54:59;70826.84;;;-142.70;25.59
6224;BME280;3145;42.726;23.342;2023-10-13T12:57:35;70812.75;;;-142.70;26.12
6224;BME280;3145;42.726;23.342;2023-10-13T13:00:10;70796.63;;;-142.70;25.92
6224;BME280;3145;42.726;23.342;2023-10-13T13:02:46;70784.56;;;-142.70;26.09
6224;BME280;3145;42.726;23.342;2023-10-13T13:05:17;70768.44;;;-142.70;26.27
6224;BME280;3145;42.726;23.342;2023-10-13T13:07:48;70764.41;;;-142.70;26.06
6224;BME280;3145;42.726;23.342;2023-10-13T13:10:18;70750.31;;;-142.70;26.04
6224;BME280;3145;42.726;23.342;2023-10-13T13:12:44;70740.25;;;-142.70;25.96
6224;BME280;3145;42.726;23.342;2023-10-13T13:15:11;70748.31;;;-142.70;25.36
6224;BME280;3145;42.726;23.342;2023-10-13T13:17:40;70752.34;;;-142.70;25.35
6224;BME280;3145;42.726;23.342;2023-10-13T13:20:07;70754.34;;;-142.70;25.21
6224;BME280;3145;42.726;23.342;2023-10-13T13:22:52;70778.50;;;-142.70;25.44
6224;BME280;3145;42.726;23.342;2023-10-13T13:25:20;70796.63;;;-142.70;25.48
6224;BME280;3145;42.726;23.342;2023-10-13T13:27:51;70810.72;;;-142.70;26.04
6224;BME280;3145;42.726;23.342;2023-10-13T13:30:18;70832.88;;;-142.70;26.07
6224;BME280;3145;42.726;23.342;2023-10-13T13:32:46;70848.97;;;-142.70;25.95